Rogiet, United Kingdom
Current Conditions -  °F | °C
As of 6:50 PM on Thursday 30 Oct 2014 (Local Time) from EGGD Reporting Station
Haze Haze  
Wind Chill: 59°   Ceiling: 600
Heat Index: 59°   Visibility: 2.8mi
Dew Point: 55°   Wind: 9mph
Humidity: 88%   Direction: 170°S
Pressure: 30.03"   Gusts: NA
Location:  51.59°N, 2.78°W
Report Text: EGGD 301850Z 17008KT 4500 HZ BKN006 15/13 Q1017
Loading
Personal Weather Stations






























Interactive Weather Map
Tropical Storm Tracking
New forecast layout! Learn more

10-Day Weather Forecast

Advertisements
Track Severe Weather on mobile